Terminal Aerodrome Forecast
Issued by NWS Atlanta, GA

Home | Current Version | Previous Version | Text Only | Print | Product List | Glossary On
Versions: 1 2 3 4 5 6 7 8 9 10 11 12 13 14
898
FTUS42 KFFC 251735
TAFMCN
TAF
KMCN 251735Z 2518/2618 06010KT P6SM FEW045 FEW250
     FM260100 00000KT P6SM SKC
     FM261600 04003KT P6SM FEW040 FEW250=

USA.gov is the U.S. government's official web portal to all federal, state and local government web resources and services.